createdAt,value
2023-02-06T00:02:27.665Z,-9.76
2023-02-06T00:04:56.996Z,-9.87
2023-02-06T00:07:26.215Z,-9.88
2023-02-06T00:09:55.569Z,-9.91
2023-02-06T00:12:24.762Z,-9.84
2023-02-06T00:14:54.009Z,-9.92
2023-02-06T00:17:23.302Z,-9.92
2023-02-06T00:19:52.589Z,-9.96
2023-02-06T00:22:21.792Z,-9.97
2023-02-06T00:24:51.036Z,-9.92
2023-02-06T00:27:20.267Z,-9.94
2023-02-06T00:29:49.542Z,-9.99
2023-02-06T00:32:19.057Z,-9.99
2023-02-06T00:34:48.311Z,-10.03
2023-02-06T00:37:17.618Z,-10.08
2023-02-06T00:39:46.870Z,-10.20
2023-02-06T00:42:16.060Z,-10.22
2023-02-06T00:44:45.264Z,-10.25
2023-02-06T00:47:14.562Z,-10.26
2023-02-06T00:49:43.924Z,-10.26
2023-02-06T00:52:13.281Z,-10.30
2023-02-06T00:54:42.520Z,-10.31
2023-02-06T00:57:11.698Z,-10.41
2023-02-06T00:59:43.005Z,-10.54
2023-02-06T01:02:12.332Z,-10.62
2023-02-06T01:04:41.897Z,-10.60
2023-02-06T01:07:11.102Z,-10.59
2023-02-06T01:09:40.526Z,-10.57
2023-02-06T01:12:09.756Z,-10.53
2023-02-06T01:14:39.356Z,-10.51
2023-02-06T01:17:10.309Z,-10.54
2023-02-06T01:19:41.234Z,-10.58
2023-02-06T01:22:10.517Z,-10.55
2023-02-06T01:24:39.728Z,-10.57
2023-02-06T01:27:08.924Z,-10.53
2023-02-06T01:29:38.272Z,-10.55
2023-02-06T01:32:07.492Z,-10.56
2023-02-06T01:34:36.705Z,-10.56
2023-02-06T01:37:06.031Z,-10.62
2023-02-06T01:39:35.577Z,-10.68
2023-02-06T01:42:05.960Z,-10.72
2023-02-06T01:44:35.618Z,-10.80
2023-02-06T01:47:04.998Z,-10.86
2023-02-06T01:49:46.035Z,-10.91
2023-02-06T01:52:25.581Z,-10.90
2023-02-06T01:55:02.802Z,-10.93
2023-02-06T01:57:34.754Z,-11.08
2023-02-06T02:00:10.029Z,-11.08
2023-02-06T02:02:50.763Z,-11.06
2023-02-06T02:05:20.750Z,-11.07
2023-02-06T02:08:18.148Z,-11.02
2023-02-06T02:10:48.322Z,-11.07
2023-02-06T02:13:18.263Z,-11.03
2023-02-06T02:16:01.071Z,-10.99
2023-02-06T02:19:00.504Z,-10.90
2023-02-06T02:22:22.102Z,-10.89
2023-02-06T02:25:56.732Z,-10.79
2023-02-06T02:28:53.013Z,-10.78
2023-02-06T02:31:49.928Z,-10.77
2023-02-06T02:34:40.276Z,-10.71
2023-02-06T02:37:35.645Z,-10.69
2023-02-06T02:40:36.368Z,-10.59
2023-02-06T02:43:08.922Z,-10.58
2023-02-06T02:46:16.324Z,-10.57
2023-02-06T02:48:51.669Z,-10.57
2023-02-06T02:51:21.582Z,-10.52
2023-02-06T02:53:50.884Z,-10.56
2023-02-06T02:56:26.348Z,-10.56
2023-02-06T02:59:05.129Z,-10.64
2023-02-06T03:01:44.009Z,-10.71
2023-02-06T03:04:26.984Z,-10.83
2023-02-06T03:07:10.634Z,-10.90
2023-02-06T03:09:51.350Z,-10.86
2023-02-06T03:13:03.209Z,-10.82
2023-02-06T03:15:59.913Z,-11.02
2023-02-06T03:18:42.913Z,-11.23
2023-02-06T03:21:18.853Z,-11.27
2023-02-06T03:23:52.874Z,-11.28
2023-02-06T03:26:26.999Z,-11.21
2023-02-06T03:29:04.863Z,-11.10
2023-02-06T03:31:46.705Z,-10.99
2023-02-06T03:34:29.388Z,-10.86
2023-02-06T03:36:58.732Z,-10.86
2023-02-06T03:39:28.137Z,-10.78
2023-02-06T03:42:00.046Z,-10.75
2023-02-06T03:44:35.962Z,-10.75
2023-02-06T03:47:08.951Z,-10.74
2023-02-06T03:49:42.839Z,-10.76
2023-02-06T03:52:24.039Z,-10.76
2023-02-06T03:55:06.421Z,-10.77
2023-02-06T03:57:37.949Z,-10.83
2023-02-06T04:00:08.460Z,-10.89
2023-02-06T04:02:42.884Z,-10.96
2023-02-06T04:05:12.252Z,-11.06
2023-02-06T04:07:41.842Z,-11.16
2023-02-06T04:10:12.099Z,-11.23
2023-02-06T04:12:41.837Z,-11.27
2023-02-06T04:15:11.559Z,-11.31
2023-02-06T04:17:57.584Z,-11.30
2023-02-06T04:20:29.426Z,-11.37
2023-02-06T04:22:59.610Z,-11.42
2023-02-06T04:25:28.921Z,-11.45
2023-02-06T04:27:59.196Z,-11.34
2023-02-06T04:30:28.630Z,-11.29
2023-02-06T04:32:57.905Z,-11.29
2023-02-06T04:35:27.128Z,-11.24
2023-02-06T04:37:56.561Z,-11.18
2023-02-06T04:40:25.739Z,-11.12
2023-02-06T04:42:55.135Z,-11.00
2023-02-06T04:45:24.516Z,-10.95
2023-02-06T04:47:53.756Z,-10.99
2023-02-06T04:50:23.079Z,-11.10
2023-02-06T04:52:52.284Z,-11.22
2023-02-06T04:55:22.796Z,-11.29
2023-02-06T04:57:52.296Z,-11.27
2023-02-06T05:00:21.739Z,-11.27
2023-02-06T05:02:51.001Z,-11.30
2023-02-06T05:05:20.419Z,-11.37
2023-02-06T05:07:49.605Z,-11.40
2023-02-06T05:10:18.947Z,-11.47
2023-02-06T05:12:50.880Z,-11.56
2023-02-06T05:15:20.212Z,-11.50
2023-02-06T05:17:49.552Z,-11.42
2023-02-06T05:20:20.480Z,-11.40
2023-02-06T05:22:49.707Z,-11.42
2023-02-06T05:25:18.926Z,-11.37
2023-02-06T05:27:48.186Z,-11.47
2023-02-06T05:30:18.344Z,-11.48
2023-02-06T05:32:47.544Z,-11.55
2023-02-06T05:35:17.237Z,-11.61
2023-02-06T05:37:46.433Z,-11.60
2023-02-06T05:40:15.981Z,-11.47
2023-02-06T05:42:45.227Z,-11.39
2023-02-06T05:45:14.488Z,-11.26
2023-02-06T05:47:43.827Z,-11.21
2023-02-06T05:50:13.048Z,-11.14
2023-02-06T05:52:42.861Z,-11.08
2023-02-06T05:55:12.926Z,-11.00
2023-02-06T05:57:42.167Z,-10.94
2023-02-06T06:00:13.480Z,-10.92
2023-02-06T06:02:42.702Z,-10.87
2023-02-06T06:05:11.912Z,-10.84
2023-02-06T06:07:41.363Z,-10.81
2023-02-06T06:10:10.727Z,-10.82
2023-02-06T06:12:39.907Z,-10.85
2023-02-06T06:15:09.742Z,-10.84
2023-02-06T06:17:39.267Z,-10.81
2023-02-06T06:20:09.241Z,-10.82
2023-02-06T06:22:38.567Z,-10.85
2023-02-06T06:25:08.185Z,-10.82
2023-02-06T06:27:37.534Z,-10.90
2023-02-06T06:30:07.799Z,-10.87
2023-02-06T06:32:37.158Z,-10.86
2023-02-06T06:35:06.933Z,-10.84
2023-02-06T06:37:36.429Z,-10.85
2023-02-06T06:40:06.057Z,-10.79
2023-02-06T06:42:35.338Z,-10.74
2023-02-06T06:45:05.458Z,-10.63
2023-02-06T06:47:34.717Z,-10.56
2023-02-06T06:50:05.027Z,-10.43
2023-02-06T06:52:34.282Z,-10.26
2023-02-06T06:55:03.686Z,-10.06
2023-02-06T06:57:33.247Z,-9.88
2023-02-06T07:00:03.066Z,-9.70
2023-02-06T07:02:33.310Z,-9.52
2023-02-06T07:05:02.881Z,-9.38
2023-02-06T07:07:33.211Z,-9.22
2023-02-06T07:10:02.515Z,-9.07
2023-02-06T07:12:33.114Z,-8.91
2023-02-06T07:15:02.525Z,-8.83
2023-02-06T07:17:32.702Z,-8.80
2023-02-06T07:20:02.371Z,-8.73
2023-02-06T07:22:32.614Z,-8.69
2023-02-06T07:25:01.845Z,-8.56
2023-02-06T07:27:33.194Z,-8.41
2023-02-06T07:30:03.278Z,-8.36
2023-02-06T07:32:36.860Z,-8.30
2023-02-06T07:35:07.233Z,-8.19
2023-02-06T07:37:36.559Z,-8.16
2023-02-06T07:40:06.874Z,-8.19
2023-02-06T07:42:36.126Z,-8.26
2023-02-06T07:45:16.994Z,-8.38
2023-02-06T07:47:46.187Z,-8.40
2023-02-06T07:50:15.594Z,-8.23
2023-02-06T07:52:44.792Z,-8.01
2023-02-06T07:55:14.018Z,-7.82
2023-02-06T07:57:43.225Z,-7.73
2023-02-06T08:00:13.431Z,-7.72
2023-02-06T08:02:43.056Z,-7.70
2023-02-06T08:05:12.389Z,-7.78
2023-02-06T08:07:41.660Z,-7.82
2023-02-06T08:10:11.009Z,-7.81
2023-02-06T08:12:40.317Z,-7.75
2023-02-06T08:15:09.921Z,-7.68
2023-02-06T08:17:39.297Z,-7.69
2023-02-06T08:20:12.872Z,-7.68
2023-02-06T08:22:42.095Z,-7.66
2023-02-06T08:25:11.330Z,-7.58
2023-02-06T08:27:40.636Z,-7.55
2023-02-06T08:30:10.918Z,-7.56
2023-02-06T08:32:40.165Z,-7.57
2023-02-06T08:35:09.455Z,-7.57
2023-02-06T08:37:38.764Z,-7.51
2023-02-06T08:40:09.158Z,-7.49
2023-02-06T08:42:38.425Z,-7.47
2023-02-06T08:45:08.417Z,-7.39
2023-02-06T08:47:37.676Z,-7.30
2023-02-06T08:50:07.192Z,-7.20
2023-02-06T08:52:36.431Z,-7.16
2023-02-06T08:55:06.529Z,-7.16
2023-02-06T08:57:35.771Z,-7.07
2023-02-06T09:00:05.882Z,-6.96
2023-02-06T09:02:35.924Z,-6.87
2023-02-06T09:05:05.867Z,-6.85
2023-02-06T09:07:35.174Z,-6.84
2023-02-06T09:10:04.606Z,-6.83
2023-02-06T09:12:34.013Z,-6.72
2023-02-06T09:15:04.400Z,-6.60
2023-02-06T09:17:35.432Z,-6.47
2023-02-06T09:20:05.369Z,-6.32
2023-02-06T09:22:35.935Z,-6.20
2023-02-06T09:25:05.706Z,-6.14
2023-02-06T09:27:35.769Z,-6.07
2023-02-06T09:30:06.205Z,-5.90
2023-02-06T09:32:35.529Z,-5.70
2023-02-06T09:35:05.560Z,-5.60
2023-02-06T09:37:34.913Z,-5.49
2023-02-06T09:40:04.491Z,-5.37
2023-02-06T09:42:40.553Z,-5.21
2023-02-06T09:45:15.022Z,-4.97
2023-02-06T09:47:58.402Z,-4.84
2023-02-06T09:50:50.173Z,-4.69
2023-02-06T09:53:38.744Z,-4.46
2023-02-06T09:56:46.521Z,-4.16
2023-02-06T09:59:35.448Z,-3.83
2023-02-06T10:02:28.842Z,-3.56
2023-02-06T10:05:19.983Z,-3.42
2023-02-06T10:08:09.766Z,-3.26
2023-02-06T10:10:55.456Z,-3.15
2023-02-06T10:13:55.377Z,-2.97
2023-02-06T10:16:48.264Z,-2.85
2023-02-06T10:19:51.143Z,-2.88
2023-02-06T10:23:18.360Z,-2.96
2023-02-06T10:26:17.373Z,-3.13
2023-02-06T10:28:56.084Z,-3.29
2023-02-06T10:31:25.380Z,-3.47
2023-02-06T10:34:19.313Z,-3.59
2023-02-06T10:37:25.299Z,-3.67
2023-02-06T10:40:31.604Z,-3.74
2023-02-06T10:43:35.577Z,-3.67
2023-02-06T10:46:32.955Z,-3.66
2023-02-06T10:49:33.993Z,-3.60
2023-02-06T10:52:26.386Z,-3.54
2023-02-06T10:55:01.502Z,-3.46
2023-02-06T10:57:32.067Z,-3.39
2023-02-06T11:00:04.299Z,-3.34
2023-02-06T11:02:47.491Z,-3.25
2023-02-06T11:05:30.398Z,-3.23
2023-02-06T11:08:25.384Z,-3.14
2023-02-06T11:10:55.796Z,-3.07
2023-02-06T11:13:34.382Z,-3.02
2023-02-06T11:16:14.380Z,-2.93
2023-02-06T11:18:46.726Z,-2.79
2023-02-06T11:21:42.342Z,-2.75
2023-02-06T11:24:16.201Z,-2.80
2023-02-06T11:26:58.879Z,-2.87
2023-02-06T11:29:37.121Z,-2.87
2023-02-06T11:32:24.448Z,-2.88
2023-02-06T11:35:01.698Z,-2.87
2023-02-06T11:37:42.044Z,-2.86
2023-02-06T11:40:20.798Z,-2.86
2023-02-06T11:43:21.311Z,-2.85
2023-02-06T11:46:07.203Z,-2.74
2023-02-06T11:48:56.576Z,-2.63
2023-02-06T11:51:44.955Z,-2.57
2023-02-06T11:54:54.207Z,-2.53
2023-02-06T11:57:26.544Z,-2.42
2023-02-06T12:00:20.880Z,-2.40
2023-02-06T12:02:54.043Z,-2.35
2023-02-06T12:05:35.315Z,-2.30
2023-02-06T12:08:16.175Z,-2.25
2023-02-06T12:11:06.866Z,-2.21
2023-02-06T12:13:48.500Z,-2.14
2023-02-06T12:16:18.790Z,-2.09
2023-02-06T12:18:55.207Z,-2.08
2023-02-06T12:21:28.391Z,-2.02
2023-02-06T12:24:02.877Z,-1.99
2023-02-06T12:26:38.148Z,-1.96
2023-02-06T12:29:42.484Z,-1.85
2023-02-06T12:32:22.110Z,-1.78
2023-02-06T12:35:16.251Z,-1.74
2023-02-06T12:37:55.367Z,-1.74
2023-02-06T12:40:45.365Z,-1.70
2023-02-06T12:43:17.633Z,-1.61
2023-02-06T12:46:09.196Z,-1.55
2023-02-06T12:49:05.733Z,-1.55
2023-02-06T12:51:40.527Z,-1.54
2023-02-06T12:54:19.548Z,-1.56
2023-02-06T12:57:22.616Z,-1.58
2023-02-06T13:00:33.312Z,-1.62
2023-02-06T13:03:25.388Z,-1.59
2023-02-06T13:06:20.013Z,-1.57
2023-02-06T13:09:01.517Z,-1.58
2023-02-06T13:11:40.735Z,-1.57
2023-02-06T13:14:25.296Z,-1.60
2023-02-06T13:17:11.004Z,-1.60
2023-02-06T13:19:40.146Z,-1.61
2023-02-06T13:22:13.527Z,-1.57
2023-02-06T13:24:46.850Z,-1.55
2023-02-06T13:27:24.479Z,-1.53
2023-02-06T13:29:54.171Z,-1.50
2023-02-06T13:32:23.589Z,-1.50
2023-02-06T13:35:06.700Z,-1.50
2023-02-06T13:37:47.872Z,-1.46
2023-02-06T13:40:23.545Z,-1.40
2023-02-06T13:42:58.605Z,-1.38
2023-02-06T13:45:42.900Z,-1.36
2023-02-06T13:48:49.535Z,-1.35
2023-02-06T13:51:56.325Z,-1.34
2023-02-06T13:54:43.813Z,-1.36
2023-02-06T13:57:50.599Z,-1.42
2023-02-06T14:00:28.903Z,-1.40
2023-02-06T14:03:26.390Z,-1.41
2023-02-06T14:06:27.732Z,-1.45
2023-02-06T14:09:49.905Z,-1.52
2023-02-06T14:12:39.360Z,-1.54
2023-02-06T14:15:19.314Z,-1.59
2023-02-06T14:18:03.485Z,-1.62
2023-02-06T14:20:57.212Z,-1.64
2023-02-06T14:24:03.690Z,-1.65
2023-02-06T14:26:50.979Z,-1.65
2023-02-06T14:29:43.209Z,-1.70
2023-02-06T14:32:33.160Z,-1.71
2023-02-06T14:35:51.344Z,-1.76
2023-02-06T14:38:31.891Z,-1.86
2023-02-06T14:41:04.131Z,-1.88
2023-02-06T14:43:40.772Z,-1.86
2023-02-06T14:46:15.824Z,-1.87
2023-02-06T14:49:11.435Z,-1.89
2023-02-06T14:51:41.990Z,-1.95
2023-02-06T14:54:50.391Z,-2.05
2023-02-06T14:57:29.662Z,-2.09
2023-02-06T15:00:00.714Z,-2.13
2023-02-06T15:02:37.287Z,-2.20
2023-02-06T15:05:06.809Z,-2.32
2023-02-06T15:07:38.536Z,-2.39
2023-02-06T15:10:14.846Z,-2.46
2023-02-06T15:12:52.738Z,-2.50
2023-02-06T15:15:26.854Z,-2.57
2023-02-06T15:18:16.338Z,-2.58
2023-02-06T15:21:07.297Z,-2.66
2023-02-06T15:24:35.674Z,-2.73
2023-02-06T15:27:25.388Z,-2.74
2023-02-06T15:29:55.048Z,-2.80
2023-02-06T15:32:32.968Z,-2.85
2023-02-06T15:35:03.121Z,-2.88
2023-02-06T15:37:35.766Z,-2.94
2023-02-06T15:40:18.907Z,-3.01
2023-02-06T15:42:50.153Z,-3.12
2023-02-06T15:45:27.240Z,-3.25
2023-02-06T15:47:58.733Z,-3.38
2023-02-06T15:50:28.879Z,-3.50
2023-02-06T15:52:58.388Z,-3.64
2023-02-06T15:55:35.776Z,-3.75
2023-02-06T15:58:05.765Z,-3.83
2023-02-06T16:00:37.791Z,-3.92
2023-02-06T16:03:19.498Z,-3.96
2023-02-06T16:05:49.405Z,-3.96
2023-02-06T16:08:22.960Z,-3.99
2023-02-06T16:11:00.825Z,-4.14
2023-02-06T16:13:33.299Z,-4.15
2023-02-06T16:16:11.676Z,-4.24
2023-02-06T16:18:41.680Z,-4.34
2023-02-06T16:21:29.266Z,-4.36
2023-02-06T16:24:04.196Z,-4.41
2023-02-06T16:26:49.549Z,-4.51
2023-02-06T16:29:32.544Z,-4.63
2023-02-06T16:32:14.870Z,-4.78
2023-02-06T16:34:46.546Z,-4.85
2023-02-06T16:37:22.490Z,-4.88
2023-02-06T16:39:52.776Z,-4.94
2023-02-06T16:42:24.485Z,-5.02
2023-02-06T16:45:01.178Z,-5.12
2023-02-06T16:47:32.015Z,-5.24
2023-02-06T16:50:01.367Z,-5.33
2023-02-06T16:52:34.366Z,-5.45
2023-02-06T16:55:04.383Z,-5.53
2023-02-06T16:57:39.092Z,-5.60
2023-02-06T17:00:30.168Z,-5.75
2023-02-06T17:03:00.526Z,-5.77
2023-02-06T17:05:31.571Z,-5.87
2023-02-06T17:08:02.280Z,-5.92
2023-02-06T17:10:31.569Z,-6.02
2023-02-06T17:13:01.021Z,-6.14
2023-02-06T17:15:30.972Z,-6.19
2023-02-06T17:18:00.191Z,-6.23
2023-02-06T17:20:37.151Z,-6.19
2023-02-06T17:23:06.845Z,-6.20
2023-02-06T17:25:36.826Z,-6.21
2023-02-06T17:28:09.187Z,-6.26
2023-02-06T17:30:39.216Z,-6.37
2023-02-06T17:33:09.180Z,-6.44
2023-02-06T17:35:38.821Z,-6.50
2023-02-06T17:38:09.860Z,-6.55
2023-02-06T17:40:42.307Z,-6.63
2023-02-06T17:43:11.715Z,-6.70
2023-02-06T17:45:41.566Z,-6.79
2023-02-06T17:48:10.794Z,-6.83
2023-02-06T17:50:42.183Z,-6.88
2023-02-06T17:53:15.255Z,-6.94
2023-02-06T17:55:45.240Z,-6.98
2023-02-06T17:58:14.567Z,-6.96
2023-02-06T18:00:47.494Z,-6.94
2023-02-06T18:03:18.353Z,-6.97
2023-02-06T18:05:57.997Z,-7.05
2023-02-06T18:08:29.464Z,-7.09
2023-02-06T18:10:59.198Z,-7.09
2023-02-06T18:13:29.036Z,-7.14
2023-02-06T18:15:58.556Z,-7.17
2023-02-06T18:18:27.861Z,-7.16
2023-02-06T18:20:58.595Z,-7.22
2023-02-06T18:23:27.995Z,-7.28
2023-02-06T18:26:06.647Z,-7.32
2023-02-06T18:28:38.470Z,-7.43
2023-02-06T18:31:24.581Z,-7.49
2023-02-06T18:33:55.096Z,-7.51
2023-02-06T18:36:24.981Z,-7.57
2023-02-06T18:38:54.496Z,-7.61
2023-02-06T18:41:42.376Z,-7.63
2023-02-06T18:44:12.512Z,-7.74
2023-02-06T18:46:41.848Z,-7.79
2023-02-06T18:49:11.377Z,-7.76
2023-02-06T18:51:41.104Z,-7.82
2023-02-06T18:54:10.999Z,-7.91
2023-02-06T18:56:40.625Z,-7.97
2023-02-06T18:59:09.849Z,-8.10
2023-02-06T19:01:39.138Z,-8.11
2023-02-06T19:04:08.441Z,-8.25
2023-02-06T19:06:40.055Z,-8.28
2023-02-06T19:09:09.488Z,-8.41
2023-02-06T19:11:39.978Z,-8.43
2023-02-06T19:14:15.854Z,-8.50
2023-02-06T19:16:47.500Z,-8.48
2023-02-06T19:19:17.394Z,-8.51
2023-02-06T19:21:46.991Z,-8.62
2023-02-06T19:24:20.698Z,-8.69
2023-02-06T19:26:50.150Z,-8.70
2023-02-06T19:29:34.816Z,-8.70
2023-02-06T19:32:07.791Z,-8.80
2023-02-06T19:34:39.875Z,-8.90
2023-02-06T19:37:10.968Z,-8.88
2023-02-06T19:39:43.275Z,-8.92
2023-02-06T19:42:17.928Z,-8.94
2023-02-06T19:44:51.873Z,-9.04
2023-02-06T19:47:22.248Z,-9.04
2023-02-06T19:49:52.819Z,-9.07
2023-02-06T19:52:22.105Z,-9.07
2023-02-06T19:54:51.459Z,-9.12
2023-02-06T19:57:20.696Z,-9.20
2023-02-06T19:59:49.963Z,-9.20
2023-02-06T20:02:19.171Z,-9.24
2023-02-06T20:04:48.386Z,-9.27
2023-02-06T20:07:17.637Z,-9.31
2023-02-06T20:09:46.900Z,-9.30
2023-02-06T20:12:16.204Z,-9.39
2023-02-06T20:14:45.525Z,-9.49
2023-02-06T20:17:14.754Z,-9.48
2023-02-06T20:19:44.279Z,-9.54
2023-02-06T20:22:13.505Z,-9.60
2023-02-06T20:24:42.683Z,-9.68
2023-02-06T20:27:13.329Z,-9.64
2023-02-06T20:29:43.429Z,-9.65
2023-02-06T20:32:15.565Z,-9.70
2023-02-06T20:34:45.344Z,-9.74
2023-02-06T20:37:14.705Z,-9.78
2023-02-06T20:39:44.232Z,-9.81
2023-02-06T20:42:13.514Z,-9.84
2023-02-06T20:44:43.014Z,-9.91
2023-02-06T20:47:12.287Z,-9.90
2023-02-06T20:49:42.062Z,-9.88
2023-02-06T20:52:11.447Z,-9.92
2023-02-06T20:54:41.247Z,-9.92
2023-02-06T20:57:10.670Z,-9.93
2023-02-06T20:59:39.890Z,-9.97
2023-02-06T21:02:11.239Z,-9.95
2023-02-06T21:04:40.568Z,-9.99
2023-02-06T21:07:09.949Z,-10.05
2023-02-06T21:09:39.179Z,-10.13
2023-02-06T21:12:08.440Z,-10.26
2023-02-06T21:14:37.642Z,-10.26
2023-02-06T21:17:07.126Z,-10.26
2023-02-06T21:19:36.486Z,-10.23
2023-02-06T21:22:05.733Z,-10.18
2023-02-06T21:24:35.052Z,-10.17
2023-02-06T21:27:04.472Z,-10.18
2023-02-06T21:29:33.815Z,-10.21
2023-02-06T21:32:13.299Z,-10.23
2023-02-06T21:34:43.542Z,-10.33
2023-02-06T21:37:13.402Z,-10.37
2023-02-06T21:39:43.043Z,-10.33
2023-02-06T21:42:12.395Z,-10.38
2023-02-06T21:44:41.673Z,-10.41
2023-02-06T21:47:10.945Z,-10.45
2023-02-06T21:49:40.139Z,-10.42
2023-02-06T21:52:09.359Z,-10.44
2023-02-06T21:54:38.726Z,-10.44
2023-02-06T21:57:08.053Z,-10.44
2023-02-06T21:59:38.506Z,-10.42
2023-02-06T22:02:10.717Z,-10.37
2023-02-06T22:04:40.037Z,-10.39
2023-02-06T22:07:11.626Z,-10.40
2023-02-06T22:09:40.917Z,-10.36
2023-02-06T22:12:10.104Z,-10.45
2023-02-06T22:14:39.380Z,-10.56
2023-02-06T22:17:08.696Z,-10.65
2023-02-06T22:19:37.965Z,-10.76
2023-02-06T22:22:07.582Z,-10.75
2023-02-06T22:24:36.753Z,-10.71
2023-02-06T22:27:06.044Z,-10.59
2023-02-06T22:29:35.393Z,-10.48
2023-02-06T22:32:05.123Z,-10.49
2023-02-06T22:34:34.495Z,-10.45
2023-02-06T22:37:03.688Z,-10.42
2023-02-06T22:39:32.927Z,-10.61
2023-02-06T22:42:02.215Z,-10.80
2023-02-06T22:44:31.454Z,-10.98
2023-02-06T22:47:01.059Z,-11.06
2023-02-06T22:49:30.362Z,-11.09
2023-02-06T22:51:59.591Z,-11.06
2023-02-06T22:54:28.850Z,-11.12
2023-02-06T22:56:58.063Z,-11.14
2023-02-06T22:59:27.896Z,-11.09
2023-02-06T23:01:58.953Z,-11.02
2023-02-06T23:04:34.634Z,-11.06
2023-02-06T23:07:04.804Z,-11.13
2023-02-06T23:09:37.139Z,-11.16
2023-02-06T23:12:07.012Z,-11.22
2023-02-06T23:14:36.262Z,-11.25
2023-02-06T23:17:05.482Z,-11.31
2023-02-06T23:19:34.829Z,-11.30
2023-02-06T23:22:04.060Z,-11.35
2023-02-06T23:24:33.631Z,-11.31
2023-02-06T23:27:03.074Z,-11.31
2023-02-06T23:29:32.344Z,-11.31
2023-02-06T23:32:01.600Z,-11.30
2023-02-06T23:34:30.919Z,-11.34
2023-02-06T23:37:00.235Z,-11.38
2023-02-06T23:39:29.573Z,-11.45
2023-02-06T23:41:58.830Z,-11.48
2023-02-06T23:44:28.025Z,-11.48
2023-02-06T23:46:57.346Z,-11.51
2023-02-06T23:49:26.585Z,-11.55
2023-02-06T23:51:55.874Z,-11.59
2023-02-06T23:54:25.089Z,-11.65
2023-02-06T23:56:54.291Z,-11.69
2023-02-06T23:59:23.555Z,-11.68
